createdAt,value
2017-12-26T00:00:24.492Z,3.40
2017-12-26T00:02:52.066Z,3.40
2017-12-26T00:05:19.541Z,3.40
2017-12-26T00:07:47.032Z,3.40
2017-12-26T00:10:14.515Z,3.30
2017-12-26T00:12:42.002Z,3.30
2017-12-26T00:15:09.475Z,3.20
2017-12-26T00:17:37.063Z,3.20
2017-12-26T00:20:04.551Z,3.20
2017-12-26T00:22:32.046Z,3.20
2017-12-26T00:24:59.510Z,3.20
2017-12-26T00:27:27.031Z,3.20
2017-12-26T00:29:54.932Z,3.30
2017-12-26T00:32:22.887Z,3.20
2017-12-26T00:34:50.362Z,3.30
2017-12-26T00:37:17.971Z,3.20
2017-12-26T00:39:45.453Z,3.20
2017-12-26T00:42:12.949Z,3.20
2017-12-26T00:44:40.922Z,3.20
2017-12-26T00:47:08.424Z,3.30
2017-12-26T00:49:36.291Z,3.20
2017-12-26T00:52:03.804Z,3.20
2017-12-26T00:54:31.682Z,3.20
2017-12-26T00:56:59.154Z,3.20
2017-12-26T00:59:26.643Z,3.20
2017-12-26T01:01:54.119Z,3.20
2017-12-26T01:04:21.637Z,3.30
2017-12-26T01:06:49.179Z,3.30
2017-12-26T01:09:16.799Z,3.20
2017-12-26T01:11:44.663Z,3.30
2017-12-26T01:14:12.163Z,3.40
2017-12-26T01:16:39.638Z,3.40
2017-12-26T01:19:07.135Z,3.40
2017-12-26T01:21:35.019Z,3.50
2017-12-26T01:24:02.513Z,3.50
2017-12-26T01:26:30.379Z,3.60
2017-12-26T01:28:57.871Z,3.60
2017-12-26T01:31:25.448Z,3.60
2017-12-26T01:33:53.714Z,3.70
2017-12-26T01:36:21.187Z,3.80
2017-12-26T01:38:48.714Z,3.80
2017-12-26T01:41:16.294Z,3.90
2017-12-26T01:43:43.867Z,3.90
2017-12-26T01:46:23.320Z,3.90
2017-12-26T01:48:50.815Z,3.80
2017-12-26T01:51:18.313Z,3.80
2017-12-26T01:53:45.808Z,3.80
2017-12-26T01:56:13.378Z,3.80
2017-12-26T01:58:40.964Z,3.90
2017-12-26T02:01:08.436Z,3.90
2017-12-26T02:03:36.234Z,3.90
2017-12-26T02:06:03.723Z,3.90
2017-12-26T02:08:31.313Z,3.90
2017-12-26T02:10:58.909Z,3.90
2017-12-26T02:13:26.916Z,3.90
2017-12-26T02:15:54.894Z,3.90
2017-12-26T02:18:22.399Z,3.90
2017-12-26T02:20:50.271Z,4.00
2017-12-26T02:23:17.774Z,4.00
2017-12-26T02:25:45.672Z,4.00
2017-12-26T02:28:13.544Z,4.00
2017-12-26T02:30:41.113Z,4.00
2017-12-26T02:33:08.711Z,3.90
2017-12-26T02:35:36.211Z,4.00
2017-12-26T02:38:04.084Z,4.00
2017-12-26T02:40:31.574Z,4.00
2017-12-26T02:42:59.139Z,4.00
2017-12-26T02:45:26.741Z,4.00
2017-12-26T02:47:54.314Z,4.00
2017-12-26T02:50:21.905Z,4.10
2017-12-26T02:52:49.384Z,4.10
2017-12-26T02:55:16.978Z,4.20
2017-12-26T02:57:44.551Z,4.20
2017-12-26T03:00:12.061Z,4.20
2017-12-26T03:02:39.931Z,4.30
2017-12-26T03:05:07.423Z,4.30
2017-12-26T03:07:34.904Z,4.30
2017-12-26T03:10:02.407Z,4.30
2017-12-26T03:12:30.275Z,4.30
2017-12-26T03:14:57.771Z,4.30
2017-12-26T03:17:25.643Z,4.40
2017-12-26T03:19:53.153Z,4.40
2017-12-26T03:22:20.709Z,4.30
2017-12-26T03:24:48.210Z,4.30
2017-12-26T03:27:15.781Z,4.40
2017-12-26T03:29:43.290Z,4.50
2017-12-26T03:32:11.169Z,4.40
2017-12-26T03:34:38.663Z,4.50
2017-12-26T03:37:06.163Z,4.40
2017-12-26T03:39:33.715Z,4.50
2017-12-26T03:42:01.206Z,4.50
2017-12-26T03:44:29.095Z,4.40
2017-12-26T03:46:57.067Z,4.40
2017-12-26T03:49:24.539Z,4.40
2017-12-26T03:51:52.053Z,4.40
2017-12-26T03:54:19.935Z,4.40
2017-12-26T03:56:47.512Z,4.40
2017-12-26T03:59:14.988Z,4.40
2017-12-26T04:01:42.578Z,4.40
2017-12-26T04:04:10.163Z,4.40
2017-12-26T04:06:37.673Z,4.40
2017-12-26T04:09:05.552Z,4.30
2017-12-26T04:11:33.062Z,4.40
2017-12-26T04:14:00.935Z,4.40
2017-12-26T04:16:28.911Z,4.40
2017-12-26T04:18:56.393Z,4.40
2017-12-26T04:21:23.977Z,4.40
2017-12-26T04:23:51.667Z,4.40
2017-12-26T04:26:19.169Z,4.50
2017-12-26T04:28:47.039Z,4.50
2017-12-26T04:31:14.572Z,4.50
2017-12-26T04:33:42.051Z,4.60
2017-12-26T04:36:09.551Z,4.60
2017-12-26T04:38:37.027Z,4.60
2017-12-26T04:41:04.530Z,4.70
2017-12-26T04:43:32.058Z,4.70
2017-12-26T04:45:59.643Z,4.70
2017-12-26T04:48:27.754Z,4.80
2017-12-26T04:50:55.653Z,4.90
2017-12-26T04:53:23.523Z,4.90
2017-12-26T04:55:51.128Z,4.90
2017-12-26T04:58:19.099Z,4.90
2017-12-26T05:00:46.679Z,4.90
2017-12-26T05:03:14.186Z,4.90
2017-12-26T05:05:42.086Z,5.10
2017-12-26T05:08:09.965Z,5.20
2017-12-26T05:10:37.516Z,5.20
2017-12-26T05:13:04.995Z,5.30
2017-12-26T05:15:32.467Z,5.40
2017-12-26T05:17:59.955Z,5.50
2017-12-26T05:20:27.423Z,5.80
2017-12-26T05:22:54.919Z,5.90
2017-12-26T05:25:22.416Z,6.00
2017-12-26T05:27:49.907Z,6.10
2017-12-26T05:30:17.380Z,6.10
2017-12-26T05:32:44.979Z,6.20
2017-12-26T05:35:12.577Z,6.30
2017-12-26T05:37:40.139Z,6.40
2017-12-26T05:40:07.626Z,6.50
2017-12-26T05:42:35.230Z,6.50
2017-12-26T05:45:02.718Z,6.60
2017-12-26T05:47:30.618Z,6.70
2017-12-26T05:49:58.488Z,6.70
2017-12-26T05:52:25.983Z,6.70
2017-12-26T05:54:53.560Z,6.70
2017-12-26T05:57:21.055Z,6.80
2017-12-26T05:59:48.619Z,6.80
2017-12-26T06:02:16.112Z,6.90
2017-12-26T06:04:43.697Z,6.90
2017-12-26T06:07:11.199Z,6.90
2017-12-26T06:09:39.267Z,6.90
2017-12-26T06:12:06.868Z,7.00
2017-12-26T06:14:34.335Z,6.90
2017-12-26T06:17:01.845Z,7.00
2017-12-26T06:19:29.820Z,7.00
2017-12-26T06:21:57.404Z,7.00
2017-12-26T06:24:24.896Z,7.00
2017-12-26T06:26:52.468Z,7.00
2017-12-26T06:29:19.936Z,7.00
2017-12-26T06:31:47.431Z,7.00
2017-12-26T06:34:14.930Z,7.00
2017-12-26T06:36:42.398Z,7.00
2017-12-26T06:39:09.989Z,7.00
2017-12-26T06:41:37.577Z,7.00
2017-12-26T06:44:05.074Z,7.00
2017-12-26T06:46:32.939Z,7.00
2017-12-26T06:49:00.435Z,7.00
2017-12-26T06:51:27.907Z,7.00
2017-12-26T06:53:55.399Z,6.90
2017-12-26T06:56:22.985Z,6.80
2017-12-26T06:58:50.484Z,6.80
2017-12-26T07:01:18.366Z,6.90
2017-12-26T07:03:45.936Z,6.90
2017-12-26T07:06:13.403Z,6.80
2017-12-26T07:08:40.899Z,6.80
2017-12-26T07:11:08.375Z,6.90
2017-12-26T07:13:35.884Z,6.90
2017-12-26T07:16:03.761Z,6.90
2017-12-26T07:18:31.259Z,6.90
2017-12-26T07:21:04.363Z,6.90
2017-12-26T07:23:31.859Z,7.40
2017-12-26T07:25:59.727Z,7.20
2017-12-26T07:28:27.220Z,7.30
2017-12-26T07:30:54.795Z,7.10
2017-12-26T07:33:22.283Z,7.00
2017-12-26T07:35:49.779Z,7.00
2017-12-26T07:38:17.277Z,6.90
2017-12-26T07:40:45.153Z,6.80
2017-12-26T07:43:12.674Z,6.80
2017-12-26T07:45:40.143Z,6.80
2017-12-26T07:48:08.096Z,6.70
2017-12-26T07:50:35.580Z,6.70
2017-12-26T07:53:03.076Z,6.60
2017-12-26T07:55:30.550Z,6.70
2017-12-26T07:57:58.127Z,6.60
2017-12-26T08:00:25.603Z,6.60
2017-12-26T08:02:53.195Z,6.50
2017-12-26T08:05:20.795Z,6.40
2017-12-26T08:07:48.373Z,6.40
2017-12-26T08:10:15.875Z,6.30
2017-12-26T08:12:43.743Z,6.20
2017-12-26T08:17:37.766Z,6.20
2017-12-26T08:20:05.262Z,6.20
2017-12-26T08:22:32.746Z,6.20
2017-12-26T08:25:00.256Z,6.30
2017-12-26T08:27:28.120Z,6.20
2017-12-26T08:29:55.607Z,6.20
2017-12-26T08:32:23.086Z,6.20
2017-12-26T08:34:50.670Z,6.20
2017-12-26T08:37:18.143Z,6.20
2017-12-26T08:39:45.757Z,6.20
2017-12-26T08:42:13.227Z,6.20
2017-12-26T08:44:40.725Z,6.20
2017-12-26T08:47:08.199Z,6.10
2017-12-26T08:49:35.776Z,6.00
2017-12-26T08:52:03.251Z,5.90
2017-12-26T08:54:30.747Z,5.80
2017-12-26T08:56:58.215Z,5.80
2017-12-26T08:59:25.803Z,5.70
2017-12-26T09:01:53.274Z,5.70
2017-12-26T09:04:20.775Z,5.50
2017-12-26T09:06:48.251Z,5.50
2017-12-26T09:09:15.743Z,5.50
2017-12-26T09:11:43.207Z,5.40
2017-12-26T09:14:10.711Z,5.40
2017-12-26T09:16:38.194Z,5.40
2017-12-26T09:19:05.777Z,5.40
2017-12-26T09:21:33.257Z,5.40
2017-12-26T09:24:00.744Z,5.50
2017-12-26T09:26:28.341Z,5.40
2017-12-26T09:28:55.818Z,5.40
2017-12-26T09:31:23.310Z,5.40
2017-12-26T09:33:50.783Z,5.30
2017-12-26T09:36:18.271Z,5.30
2017-12-26T09:38:45.834Z,5.30
2017-12-26T09:41:13.339Z,5.30
2017-12-26T09:43:40.807Z,5.30
2017-12-26T09:46:08.303Z,5.30
2017-12-26T09:48:35.771Z,5.40
2017-12-26T09:51:03.263Z,5.40
2017-12-26T09:53:30.727Z,5.40
2017-12-26T09:55:58.230Z,5.40
2017-12-26T09:58:25.804Z,5.50
2017-12-26T10:00:53.402Z,5.50
2017-12-26T10:03:20.876Z,5.50
2017-12-26T10:05:48.371Z,5.50
2017-12-26T10:08:15.846Z,5.60
2017-12-26T10:10:43.335Z,5.50
2017-12-26T10:13:10.899Z,5.50
2017-12-26T10:15:38.391Z,5.50
2017-12-26T10:18:05.863Z,5.50
2017-12-26T10:20:33.351Z,5.40
2017-12-26T10:23:00.822Z,5.40
2017-12-26T10:25:28.361Z,5.40
2017-12-26T10:27:55.922Z,5.50
2017-12-26T10:30:23.864Z,5.50
2017-12-26T10:32:51.340Z,5.50
2017-12-26T10:35:18.864Z,5.50
2017-12-26T10:37:46.358Z,5.50
2017-12-26T10:40:13.878Z,5.60
2017-12-26T10:42:41.416Z,5.50
2017-12-26T10:45:08.971Z,5.60
2017-12-26T10:47:36.484Z,5.60
2017-12-26T10:50:03.968Z,5.80
2017-12-26T10:52:31.468Z,5.80
2017-12-26T10:54:59.050Z,5.80
2017-12-26T10:57:26.634Z,5.80
2017-12-26T10:59:54.146Z,5.80
2017-12-26T11:02:21.644Z,5.80
2017-12-26T11:04:49.183Z,5.90
2017-12-26T11:07:16.766Z,6.00
2017-12-26T11:09:44.355Z,5.90
2017-12-26T11:12:11.928Z,5.90
2017-12-26T11:14:39.414Z,5.90
2017-12-26T11:17:07.087Z,5.90
2017-12-26T11:19:34.984Z,5.90
2017-12-26T11:22:02.491Z,5.90
2017-12-26T11:24:30.376Z,6.00
2017-12-26T11:26:58.394Z,6.00
2017-12-26T11:29:25.883Z,6.00
2017-12-26T11:31:53.384Z,6.00
2017-12-26T11:34:20.860Z,5.90
2017-12-26T11:36:48.402Z,6.00
2017-12-26T11:39:15.890Z,6.00
2017-12-26T11:41:43.868Z,6.00
2017-12-26T11:44:11.367Z,6.00
2017-12-26T11:46:39.358Z,6.10
2017-12-26T11:49:06.846Z,6.10
2017-12-26T11:51:34.820Z,6.10
2017-12-26T11:54:02.331Z,6.10
2017-12-26T11:56:30.238Z,6.20
2017-12-26T11:58:57.724Z,6.20
2017-12-26T12:01:25.276Z,6.20
2017-12-26T12:03:52.858Z,6.20
2017-12-26T12:06:20.368Z,6.20
2017-12-26T12:08:47.854Z,6.20
2017-12-26T12:11:15.382Z,6.10
2017-12-26T12:13:42.875Z,6.20
2017-12-26T12:16:10.365Z,6.20
2017-12-26T12:18:37.865Z,6.20
2017-12-26T12:21:05.360Z,7.70
2017-12-26T12:23:33.258Z,7.60
2017-12-26T12:26:00.820Z,7.60
2017-12-26T12:28:28.716Z,7.00
2017-12-26T12:30:56.692Z,6.80
2017-12-26T12:33:24.203Z,6.80
2017-12-26T12:35:52.072Z,6.70
2017-12-26T12:38:19.653Z,6.70
2017-12-26T12:40:47.128Z,6.70
2017-12-26T12:43:14.647Z,6.60
2017-12-26T12:45:42.529Z,6.60
2017-12-26T12:48:10.434Z,6.60
2017-12-26T12:50:38.411Z,6.60
2017-12-26T12:53:05.984Z,6.60
2017-12-26T12:55:33.464Z,6.60
2017-12-26T12:58:00.986Z,6.50
2017-12-26T13:00:28.485Z,6.50
2017-12-26T13:02:55.994Z,6.60
2017-12-26T13:05:23.472Z,6.60
2017-12-26T13:07:50.963Z,6.50
2017-12-26T13:10:18.448Z,6.60
2017-12-26T13:12:45.958Z,6.60
2017-12-26T13:15:13.436Z,6.60
2017-12-26T13:17:40.942Z,6.50
2017-12-26T13:20:08.830Z,6.50
2017-12-26T13:22:36.733Z,6.50
2017-12-26T13:25:04.405Z,6.50
2017-12-26T13:27:31.963Z,6.50
2017-12-26T13:29:59.448Z,6.60
2017-12-26T13:32:26.959Z,6.50
2017-12-26T13:34:54.868Z,6.50
2017-12-26T13:37:22.343Z,6.50
2017-12-26T13:39:49.875Z,6.50
2017-12-26T13:42:17.347Z,6.60
2017-12-26T13:44:44.877Z,6.50
2017-12-26T13:47:12.742Z,6.60
2017-12-26T13:49:40.643Z,6.60
2017-12-26T13:52:08.211Z,6.60
2017-12-26T13:54:35.726Z,6.60
2017-12-26T13:57:03.625Z,6.60
2017-12-26T13:59:31.376Z,6.60
2017-12-26T14:01:58.964Z,6.50
2017-12-26T14:04:26.468Z,6.60
2017-12-26T14:06:54.478Z,6.60
2017-12-26T14:09:22.026Z,6.60
2017-12-26T14:11:49.513Z,6.60
2017-12-26T14:14:17.008Z,6.60
2017-12-26T14:16:44.481Z,6.50
2017-12-26T14:19:11.991Z,6.60
2017-12-26T14:21:39.863Z,6.50
2017-12-26T14:24:07.360Z,6.50
2017-12-26T14:26:35.300Z,6.60
2017-12-26T14:29:02.792Z,6.60
2017-12-26T14:31:30.264Z,6.60
2017-12-26T14:33:57.862Z,6.60
2017-12-26T14:36:25.419Z,9.00
2017-12-26T14:38:52.969Z,11.10
2017-12-26T14:41:20.855Z,10.00
2017-12-26T14:43:48.766Z,8.70
2017-12-26T14:46:16.247Z,8.80
2017-12-26T14:48:43.753Z,8.10
2017-12-26T14:51:11.232Z,7.70
2017-12-26T14:53:38.737Z,7.40
2017-12-26T14:56:06.224Z,7.10
2017-12-26T14:58:33.733Z,7.00
2017-12-26T15:01:01.235Z,6.90
2017-12-26T15:03:29.104Z,6.70
2017-12-26T15:05:56.611Z,6.70
2017-12-26T15:08:24.476Z,6.60
2017-12-26T15:10:51.982Z,6.60
2017-12-26T15:13:19.952Z,6.50
2017-12-26T15:15:47.447Z,6.50
2017-12-26T15:18:15.328Z,6.30
2017-12-26T15:20:42.828Z,6.30
2017-12-26T15:23:10.709Z,6.30
2017-12-26T15:25:38.292Z,6.30
2017-12-26T15:28:05.796Z,6.30
2017-12-26T15:30:33.675Z,6.30
2017-12-26T15:33:01.147Z,6.30
2017-12-26T15:35:28.719Z,6.20
2017-12-26T15:37:56.192Z,6.30
2017-12-26T15:40:23.791Z,6.20
2017-12-26T15:42:51.274Z,6.20
2017-12-26T15:45:18.866Z,6.20
2017-12-26T15:47:46.350Z,6.20
2017-12-26T15:50:13.854Z,6.20
2017-12-26T15:52:41.727Z,6.30
2017-12-26T15:55:09.341Z,6.30
2017-12-26T15:57:36.827Z,6.30
2017-12-26T16:00:04.323Z,7.00
2017-12-26T16:02:31.842Z,6.90
2017-12-26T16:04:59.303Z,6.80
2017-12-26T16:07:26.770Z,6.70
2017-12-26T16:09:54.287Z,6.60
2017-12-26T16:12:21.777Z,6.40
2017-12-26T16:14:49.359Z,6.20
2017-12-26T16:17:16.981Z,6.20
2017-12-26T16:19:44.904Z,6.10
2017-12-26T16:22:12.383Z,6.10
2017-12-26T16:24:40.443Z,6.00
2017-12-26T16:27:07.964Z,6.00
2017-12-26T16:29:35.505Z,6.00
2017-12-26T16:32:02.999Z,6.00
2017-12-26T16:34:30.884Z,6.10
2017-12-26T16:36:58.866Z,6.00
2017-12-26T16:39:26.427Z,6.10
2017-12-26T16:41:53.927Z,5.90
2017-12-26T16:44:21.407Z,5.70
2017-12-26T16:46:48.901Z,5.70
2017-12-26T16:49:16.381Z,5.60
2017-12-26T16:51:43.879Z,5.50
2017-12-26T16:54:11.757Z,5.60
2017-12-26T16:56:39.345Z,5.60
2017-12-26T16:59:06.822Z,5.60
2017-12-26T17:01:34.415Z,5.70
2017-12-26T17:04:02.405Z,5.60
2017-12-26T17:06:30.014Z,5.70
2017-12-26T17:08:57.883Z,5.70
2017-12-26T17:11:25.389Z,5.70
2017-12-26T17:13:53.930Z,5.70
2017-12-26T17:16:21.478Z,5.70
2017-12-26T17:18:49.342Z,5.60
2017-12-26T17:21:16.827Z,5.60
2017-12-26T17:23:44.323Z,5.60
2017-12-26T17:26:11.819Z,5.50
2017-12-26T17:28:39.687Z,5.40
2017-12-26T17:31:07.177Z,5.50
2017-12-26T17:33:34.658Z,5.30
2017-12-26T17:36:02.171Z,5.20
2017-12-26T17:38:29.642Z,5.20
2017-12-26T17:40:57.543Z,5.10
2017-12-26T17:43:25.521Z,4.90
2017-12-26T17:45:53.496Z,4.90
2017-12-26T17:48:20.975Z,4.90
2017-12-26T17:50:48.493Z,4.90
2017-12-26T17:53:16.455Z,4.90
2017-12-26T17:55:43.931Z,4.90
2017-12-26T17:58:11.421Z,4.80
2017-12-26T18:00:38.941Z,4.90
2017-12-26T18:03:06.431Z,4.90
2017-12-26T18:05:33.960Z,5.00
2017-12-26T18:08:01.461Z,5.00
2017-12-26T18:10:28.967Z,4.90
2017-12-26T18:12:56.936Z,4.90
2017-12-26T18:15:24.449Z,4.90
2017-12-26T18:17:52.340Z,4.90
2017-12-26T18:20:20.222Z,4.90
2017-12-26T18:22:48.199Z,4.90
2017-12-26T18:25:15.668Z,4.90
2017-12-26T18:27:43.156Z,4.90
2017-12-26T18:30:10.651Z,4.80
2017-12-26T18:32:38.144Z,4.90
2017-12-26T18:35:06.015Z,4.90
2017-12-26T18:37:33.594Z,5.00
2017-12-26T18:40:01.066Z,4.90
2017-12-26T18:42:28.551Z,4.90
2017-12-26T18:44:56.078Z,4.90
2017-12-26T18:47:23.968Z,4.90
2017-12-26T18:49:51.826Z,4.70
2017-12-26T18:52:19.337Z,4.80
2017-12-26T18:54:47.210Z,4.50
2017-12-26T18:57:14.720Z,4.50
2017-12-26T18:59:42.589Z,4.30
2017-12-26T19:02:10.091Z,4.30
2017-12-26T19:04:37.994Z,4.20
2017-12-26T19:07:05.501Z,4.20
2017-12-26T19:09:32.997Z,4.20
2017-12-26T19:12:00.501Z,4.20
2017-12-26T19:14:27.975Z,4.20
2017-12-26T19:16:55.463Z,4.20
2017-12-26T19:19:22.950Z,4.20
2017-12-26T19:21:50.440Z,4.20
2017-12-26T19:24:17.926Z,4.20
2017-12-26T19:26:45.462Z,4.20
2017-12-26T19:29:12.954Z,4.10
2017-12-26T19:31:40.426Z,4.10
2017-12-26T19:34:07.919Z,4.10
2017-12-26T19:36:35.394Z,4.20
2017-12-26T19:39:02.883Z,4.30
2017-12-26T19:41:30.360Z,4.30
2017-12-26T19:43:57.864Z,4.30
2017-12-26T19:46:25.358Z,4.30
2017-12-26T19:48:52.958Z,4.30
2017-12-26T19:51:20.426Z,4.30
2017-12-26T19:53:47.925Z,4.40
2017-12-26T19:56:15.394Z,4.30
2017-12-26T19:58:42.901Z,4.40
2017-12-26T20:01:10.389Z,4.40
2017-12-26T20:03:37.975Z,4.40
2017-12-26T20:06:05.458Z,4.40
2017-12-26T20:08:32.991Z,4.40
2017-12-26T20:11:01.307Z,4.40
2017-12-26T20:13:29.210Z,4.40
2017-12-26T20:15:57.167Z,4.50
2017-12-26T20:18:24.759Z,4.40
2017-12-26T20:20:52.283Z,4.40
2017-12-26T20:23:20.181Z,4.50
2017-12-26T20:25:47.754Z,4.50
2017-12-26T20:28:21.070Z,4.50
2017-12-26T20:30:48.563Z,4.40
2017-12-26T20:33:16.164Z,4.50
2017-12-26T20:35:43.640Z,4.40
2017-12-26T20:38:11.247Z,4.50
2017-12-26T20:40:38.733Z,4.40
2017-12-26T20:43:06.227Z,4.50
2017-12-26T20:45:33.718Z,4.30
2017-12-26T20:48:01.582Z,4.30
2017-12-26T20:50:29.082Z,4.40
2017-12-26T20:52:56.559Z,4.30
2017-12-26T20:55:24.063Z,4.30
2017-12-26T20:57:51.639Z,4.30
2017-12-26T21:00:19.212Z,4.40
2017-12-26T21:02:46.717Z,4.40
2017-12-26T21:05:14.212Z,4.40
2017-12-26T21:07:41.697Z,4.40
2017-12-26T21:10:09.597Z,4.30
2017-12-26T21:12:37.569Z,4.30
2017-12-26T21:15:05.066Z,4.30
2017-12-26T21:17:32.543Z,4.30
2017-12-26T21:20:00.039Z,4.30
2017-12-26T21:22:27.510Z,4.30
2017-12-26T21:24:55.021Z,4.30
2017-12-26T21:27:22.494Z,4.30
2017-12-26T21:29:50.394Z,4.30
2017-12-26T21:32:17.972Z,4.30
2017-12-26T21:34:45.551Z,4.40
2017-12-26T21:37:13.027Z,4.40
2017-12-26T21:39:40.537Z,4.40
2017-12-26T21:42:08.016Z,4.40
2017-12-26T21:44:35.524Z,4.40
2017-12-26T21:47:02.998Z,4.50
2017-12-26T21:49:30.885Z,4.50
2017-12-26T21:51:58.750Z,4.50
2017-12-26T21:54:26.247Z,4.50
2017-12-26T21:56:53.714Z,4.50
2017-12-26T21:59:21.309Z,4.50
2017-12-26T22:01:48.780Z,4.60
2017-12-26T22:04:16.283Z,4.60
2017-12-26T22:06:44.163Z,4.60
2017-12-26T22:09:11.626Z,4.60
2017-12-26T22:11:39.114Z,4.60
2017-12-26T22:14:06.598Z,4.50
2017-12-26T22:16:34.091Z,4.50
2017-12-26T22:19:01.668Z,4.50
2017-12-26T22:21:29.303Z,4.50
2017-12-26T22:23:56.777Z,4.50
2017-12-26T22:26:24.746Z,4.60
2017-12-26T22:28:52.214Z,4.60
2017-12-26T22:31:19.713Z,4.50
2017-12-26T22:33:47.287Z,4.50
2017-12-26T22:36:14.789Z,4.60
2017-12-26T22:38:42.668Z,4.60
2017-12-26T22:41:10.159Z,4.60
2017-12-26T22:43:37.631Z,4.60
2017-12-26T22:46:05.208Z,4.60
2017-12-26T22:48:32.682Z,4.50
2017-12-26T22:51:00.292Z,4.60
2017-12-26T22:53:27.793Z,4.60
2017-12-26T22:55:55.674Z,4.60
2017-12-26T22:58:23.547Z,4.60
2017-12-26T23:00:51.129Z,4.60
2017-12-26T23:03:18.599Z,4.60
2017-12-26T23:05:46.104Z,4.60
2017-12-26T23:08:13.574Z,4.60
2017-12-26T23:10:41.082Z,4.60
2017-12-26T23:13:08.950Z,4.50
2017-12-26T23:15:42.082Z,4.50
2017-12-26T23:18:15.282Z,4.50
2017-12-26T23:20:48.582Z,4.50
2017-12-26T23:23:21.712Z,4.60
2017-12-26T23:25:54.980Z,4.60
2017-12-26T23:28:28.091Z,4.60
2017-12-26T23:31:01.395Z,4.60
2017-12-26T23:33:35.070Z,4.50
2017-12-26T23:36:08.094Z,4.50
2017-12-26T23:38:41.288Z,4.60
2017-12-26T23:41:14.538Z,4.60
2017-12-26T23:43:47.788Z,4.60
2017-12-26T23:46:20.895Z,4.60
2017-12-26T23:48:54.133Z,4.60
2017-12-26T23:51:27.846Z,4.60
2017-12-26T23:54:01.131Z,4.60
2017-12-26T23:56:34.239Z,4.60
2017-12-26T23:59:07.282Z,4.70
